createdAt,value
2022-11-05T00:01:38.516Z,96883.16
2022-11-05T00:04:00.077Z,96885.69
2022-11-05T00:06:28.995Z,96888.34
2022-11-05T00:08:49.325Z,96887.47
2022-11-05T00:10:51.939Z,96898.84
2022-11-05T00:13:13.246Z,96900.50
2022-11-05T00:15:33.719Z,96898.97
2022-11-05T00:17:36.710Z,96898.09
2022-11-05T00:19:40.617Z,96907.59
2022-11-05T00:22:00.672Z,96905.00
2022-11-05T00:24:24.279Z,96907.56
2022-11-05T00:26:27.027Z,96905.72
2022-11-05T00:28:31.091Z,96901.44
2022-11-05T00:30:33.671Z,96900.50
2022-11-05T00:32:36.290Z,96906.56
2022-11-05T00:34:40.204Z,96909.97
2022-11-05T00:36:42.747Z,96916.81
2022-11-05T00:38:45.281Z,96911.66
2022-11-05T00:40:50.353Z,96918.63
2022-11-05T00:43:11.132Z,96925.66
2022-11-05T00:45:13.023Z,96915.31
2022-11-05T00:47:33.062Z,96923.91
2022-11-05T00:49:35.633Z,96931.75
2022-11-05T00:51:39.538Z,96929.13
2022-11-05T00:53:42.253Z,96930.91
2022-11-05T00:55:46.697Z,96934.34
2022-11-05T00:57:49.300Z,96942.28
2022-11-05T00:59:51.918Z,96940.66
2022-11-05T01:01:54.617Z,96946.69
2022-11-05T01:03:57.287Z,96946.63
2022-11-05T01:06:08.676Z,96942.94
2022-11-05T01:08:13.129Z,96947.13
2022-11-05T01:10:15.861Z,96943.88
2022-11-05T01:12:18.434Z,96948.94
2022-11-05T01:14:21.004Z,96950.75
2022-11-05T01:16:23.563Z,96949.09
2022-11-05T01:18:26.218Z,96956.03
2022-11-05T01:20:28.817Z,96953.09
2022-11-05T01:22:31.510Z,96952.47
2022-11-05T01:24:35.485Z,96958.63
2022-11-05T01:26:38.031Z,96955.25
2022-11-05T01:28:40.684Z,96955.19
2022-11-05T01:30:43.310Z,96961.31
2022-11-05T01:32:45.977Z,96961.97
2022-11-05T01:34:49.227Z,96960.34
2022-11-05T01:36:51.807Z,96960.94
2022-11-05T01:38:54.569Z,96963.84
2022-11-05T01:40:58.495Z,96968.25
2022-11-05T01:43:01.060Z,96966.56
2022-11-05T01:45:12.418Z,96961.44
2022-11-05T01:47:28.222Z,96970.03
2022-11-05T01:49:34.923Z,96975.22
2022-11-05T01:51:41.136Z,96971.78
2022-11-05T01:53:48.528Z,96971.31
2022-11-05T01:55:58.005Z,96977.66
2022-11-05T01:58:03.683Z,96977.84
2022-11-05T02:00:07.361Z,96982.91
2022-11-05T02:02:10.262Z,96981.25
2022-11-05T02:04:18.106Z,96975.09
2022-11-05T02:06:21.300Z,96975.16
2022-11-05T02:08:45.705Z,96975.78
2022-11-05T02:10:49.525Z,96982.56
2022-11-05T02:12:52.316Z,96978.91
2022-11-05T02:14:56.399Z,96979.47
2022-11-05T02:17:06.242Z,96976.84
2022-11-05T02:19:35.703Z,96978.66
2022-11-05T02:22:14.027Z,96976.06
2022-11-05T02:24:39.063Z,96978.59
2022-11-05T02:27:14.038Z,96979.41
2022-11-05T02:29:57.316Z,96979.47
2022-11-05T02:32:06.451Z,96979.41
2022-11-05T02:34:17.559Z,96983.81
2022-11-05T02:36:32.253Z,96973.19
2022-11-05T02:38:41.707Z,96980.38
2022-11-05T02:40:51.654Z,96982.38
2022-11-05T02:43:03.268Z,96984.13
2022-11-05T02:45:13.272Z,96983.19
2022-11-05T02:47:26.264Z,96987.66
2022-11-05T02:49:39.334Z,96986.84
2022-11-05T02:51:49.068Z,96985.88
2022-11-05T02:53:58.982Z,96985.88
2022-11-05T02:56:06.586Z,96987.50
2022-11-05T02:58:09.741Z,96989.25
2022-11-05T03:00:45.139Z,96984.06
2022-11-05T03:02:49.216Z,96984.84
2022-11-05T03:04:51.954Z,96982.41
2022-11-05T03:07:29.437Z,96991.06
2022-11-05T03:09:59.370Z,96991.06
2022-11-05T03:12:18.479Z,96995.31
2022-11-05T03:14:25.480Z,96994.41
2022-11-05T03:16:35.515Z,96991.63
2022-11-05T03:18:43.224Z,96994.34
2022-11-05T03:20:51.015Z,96997.69
2022-11-05T03:22:59.993Z,96999.44
2022-11-05T03:25:09.317Z,97002.88
2022-11-05T03:27:16.219Z,97012.56
2022-11-05T03:29:23.988Z,97016.97
2022-11-05T03:31:30.057Z,97009.22
2022-11-05T03:33:35.575Z,97014.56
2022-11-05T03:35:42.519Z,97012.91
2022-11-05T03:37:48.218Z,97017.09
2022-11-05T03:39:55.172Z,97021.56
2022-11-05T03:41:59.598Z,97023.31
2022-11-05T03:44:07.401Z,97024.97
2022-11-05T03:46:13.358Z,97028.50
2022-11-05T03:48:18.885Z,97034.56
2022-11-05T03:50:24.571Z,97029.44
2022-11-05T03:52:34.406Z,97035.59
2022-11-05T03:54:37.478Z,97038.09
2022-11-05T03:56:46.835Z,97039.91
2022-11-05T03:58:53.385Z,97044.13
2022-11-05T04:01:02.085Z,97045.84
2022-11-05T04:03:04.775Z,97048.50
2022-11-05T04:05:07.924Z,97058.78
2022-11-05T04:07:28.915Z,97059.72
2022-11-05T04:10:04.699Z,97048.50
2022-11-05T04:12:24.790Z,97056.38
2022-11-05T04:14:27.489Z,97055.56
2022-11-05T04:16:47.820Z,97063.50
2022-11-05T04:18:50.355Z,97058.13
2022-11-05T04:21:10.440Z,97064.22
2022-11-05T04:23:42.066Z,97065.75
2022-11-05T04:25:46.396Z,97068.53
2022-11-05T04:27:49.674Z,97070.84
2022-11-05T04:30:10.107Z,97073.66
2022-11-05T04:32:12.717Z,97077.22
2022-11-05T04:34:16.163Z,97078.19
2022-11-05T04:36:19.563Z,97079.00
2022-11-05T04:38:22.128Z,97078.06
2022-11-05T04:40:24.909Z,97078.06
2022-11-05T04:42:29.292Z,97073.84
2022-11-05T04:44:31.922Z,97078.13
2022-11-05T04:46:34.522Z,97084.19
2022-11-05T04:48:37.660Z,97077.22
2022-11-05T04:50:40.317Z,97080.41
2022-11-05T04:52:43.081Z,97081.47
2022-11-05T04:54:45.666Z,97086.69
2022-11-05T04:56:48.197Z,97085.81
2022-11-05T04:58:52.774Z,97094.00
2022-11-05T05:00:55.381Z,97105.69
2022-11-05T05:02:58.055Z,97104.91
2022-11-05T05:05:00.654Z,97100.63
2022-11-05T05:07:03.258Z,97105.13
2022-11-05T05:09:05.821Z,97106.75
2022-11-05T05:11:11.953Z,97113.81
2022-11-05T05:13:14.503Z,97121.56
2022-11-05T05:15:18.789Z,97112.66
2022-11-05T05:17:21.393Z,97117.84
2022-11-05T05:19:25.122Z,97125.03
2022-11-05T05:21:38.721Z,97121.63
2022-11-05T05:23:41.229Z,97125.16
2022-11-05T05:25:43.771Z,97128.56
2022-11-05T05:27:46.346Z,97130.25
2022-11-05T05:29:48.907Z,97136.31
2022-11-05T05:31:52.812Z,97136.34
2022-11-05T05:33:55.773Z,97138.91
2022-11-05T05:35:58.838Z,97144.09
2022-11-05T05:38:01.346Z,97147.53
2022-11-05T05:40:04.291Z,97148.34
2022-11-05T05:42:06.879Z,97141.44
2022-11-05T05:44:09.463Z,97155.28
2022-11-05T05:46:14.770Z,97152.59
2022-11-05T05:48:18.697Z,97153.44
2022-11-05T05:50:21.564Z,97162.97
2022-11-05T05:52:24.107Z,97159.38
2022-11-05T05:54:31.919Z,97155.03
2022-11-05T05:56:35.326Z,97159.28
2022-11-05T05:58:39.904Z,97172.31
2022-11-05T06:00:42.473Z,97173.06
2022-11-05T06:02:45.188Z,97174.00
2022-11-05T06:04:49.348Z,97173.94
2022-11-05T06:06:51.916Z,97168.72
2022-11-05T06:08:55.828Z,97172.19
2022-11-05T06:10:58.879Z,97175.66
2022-11-05T06:13:01.899Z,97173.00
2022-11-05T06:15:05.261Z,97178.28
2022-11-05T06:17:07.987Z,97175.69
2022-11-05T06:19:10.550Z,97180.06
2022-11-05T06:21:16.199Z,97187.06
2022-11-05T06:23:18.739Z,97183.66
2022-11-05T06:25:21.314Z,97188.81
2022-11-05T06:27:23.900Z,97189.66
2022-11-05T06:29:26.482Z,97191.41
2022-11-05T06:31:29.123Z,97192.38
2022-11-05T06:33:34.733Z,97201.13
2022-11-05T06:35:37.338Z,97200.34
2022-11-05T06:37:41.358Z,97203.84
2022-11-05T06:39:43.916Z,97203.91
2022-11-05T06:42:11.956Z,97207.94
2022-11-05T06:44:09.008Z,97209.94
2022-11-05T06:46:12.234Z,97211.72
2022-11-05T06:48:14.823Z,97217.81
2022-11-05T06:50:17.600Z,97224.88
2022-11-05T06:52:20.906Z,97226.56
2022-11-05T06:54:24.847Z,97229.97
2022-11-05T06:56:27.636Z,97235.25
2022-11-05T06:58:30.864Z,97234.34
2022-11-05T07:00:33.801Z,97236.06
2022-11-05T07:02:36.420Z,97239.38
2022-11-05T07:04:38.992Z,97241.16
2022-11-05T07:06:41.631Z,97251.63
2022-11-05T07:08:44.266Z,97252.50
2022-11-05T07:10:48.945Z,97256.00
2022-11-05T07:12:51.566Z,97254.22
2022-11-05T07:14:54.087Z,97260.13
2022-11-05T07:16:58.000Z,97265.50
2022-11-05T07:19:00.830Z,97269.84
2022-11-05T07:21:03.446Z,97268.09
2022-11-05T07:23:08.305Z,97275.75
2022-11-05T07:25:11.084Z,97279.03
2022-11-05T07:27:15.063Z,97284.31
2022-11-05T07:29:17.667Z,97289.63
2022-11-05T07:31:20.226Z,97288.63
2022-11-05T07:33:22.760Z,97285.97
2022-11-05T07:35:25.629Z,97291.47
2022-11-05T07:37:28.175Z,97301.19
2022-11-05T07:39:30.752Z,97302.03
2022-11-05T07:41:33.313Z,97308.41
2022-11-05T07:43:37.270Z,97311.69
2022-11-05T07:45:39.864Z,97312.69
2022-11-05T07:47:47.644Z,97311.53
2022-11-05T07:49:50.214Z,97316.97
2022-11-05T07:51:53.589Z,97305.41
2022-11-05T07:53:56.159Z,97310.72
2022-11-05T07:55:58.922Z,97313.38
2022-11-05T07:58:01.581Z,97326.34
2022-11-05T08:00:06.433Z,97327.16
2022-11-05T08:02:11.158Z,97328.81
2022-11-05T08:04:13.953Z,97335.78
2022-11-05T08:06:16.514Z,97339.06
2022-11-05T08:08:20.510Z,97343.53
2022-11-05T08:10:23.495Z,97347.03
2022-11-05T08:12:26.057Z,97339.06
2022-11-05T08:14:28.600Z,97345.25
2022-11-05T08:16:32.519Z,97344.28
2022-11-05T08:18:35.070Z,97345.94
2022-11-05T08:20:38.437Z,97352.13
2022-11-05T08:22:43.371Z,97346.94
2022-11-05T08:24:45.964Z,97353.81
2022-11-05T08:26:48.488Z,97351.22
2022-11-05T08:28:51.057Z,97349.44
2022-11-05T08:30:55.485Z,97352.09
2022-11-05T08:33:00.833Z,97356.41
2022-11-05T08:35:03.416Z,97360.75
2022-11-05T08:37:06.030Z,97357.28
2022-11-05T08:39:14.305Z,97356.44
2022-11-05T08:41:19.311Z,97360.75
2022-11-05T08:43:21.928Z,97363.25
2022-11-05T08:45:24.850Z,97364.06
2022-11-05T08:47:27.427Z,97366.63
2022-11-05T08:49:31.330Z,97370.03
2022-11-05T08:51:33.892Z,97369.09
2022-11-05T08:53:36.413Z,97375.22
2022-11-05T08:55:39.374Z,97374.38
2022-11-05T08:57:41.961Z,97376.78
2022-11-05T08:59:44.542Z,97376.78
2022-11-05T09:01:47.321Z,97370.72
2022-11-05T09:03:52.264Z,97382.94
2022-11-05T09:05:56.150Z,97380.38
2022-11-05T09:08:01.305Z,97383.91
2022-11-05T09:10:04.582Z,97378.72
2022-11-05T09:12:12.673Z,97376.91
2022-11-05T09:14:15.583Z,97386.50
2022-11-05T09:16:21.423Z,97387.28
2022-11-05T09:18:24.015Z,97387.25
2022-11-05T09:20:26.588Z,97388.94
2022-11-05T09:22:30.838Z,97398.44
2022-11-05T09:24:33.387Z,97400.13
2022-11-05T09:26:36.002Z,97400.94
2022-11-05T09:28:38.879Z,97398.44
2022-11-05T09:30:42.625Z,97401.84
2022-11-05T09:32:45.183Z,97401.84
2022-11-05T09:34:48.945Z,97404.34
2022-11-05T09:36:51.504Z,97401.72
2022-11-05T09:38:55.422Z,97400.81
2022-11-05T09:41:04.364Z,97398.28
2022-11-05T09:43:07.709Z,97409.50
2022-11-05T09:45:16.219Z,97405.13
2022-11-05T09:47:24.719Z,97409.38
2022-11-05T09:49:30.269Z,97411.75
2022-11-05T09:51:34.119Z,97414.31
2022-11-05T09:53:41.078Z,97407.53
2022-11-05T09:55:48.900Z,97412.47
2022-11-05T09:57:55.192Z,97421.09
2022-11-05T10:00:00.449Z,97413.66
2022-11-05T10:02:12.302Z,97423.63
2022-11-05T10:04:17.531Z,97428.88
2022-11-05T10:06:22.344Z,97424.66
2022-11-05T10:08:29.371Z,97432.78
2022-11-05T10:10:40.780Z,97436.34
2022-11-05T10:12:48.991Z,97438.19
2022-11-05T10:15:11.513Z,97446.69
2022-11-05T10:17:22.288Z,97435.19
2022-11-05T10:19:27.183Z,97440.28
2022-11-05T10:21:59.722Z,97442.63
2022-11-05T10:23:53.523Z,97450.84
2022-11-05T10:25:58.769Z,97447.72
2022-11-05T10:28:05.589Z,97449.22
2022-11-05T10:30:10.817Z,97449.28
2022-11-05T10:32:18.967Z,97439.91
2022-11-05T10:34:24.587Z,97446.75
2022-11-05T10:36:31.918Z,97452.63
2022-11-05T10:38:34.739Z,97454.09
2022-11-05T10:40:47.788Z,97454.97
2022-11-05T10:43:00.021Z,97448.91
2022-11-05T10:45:13.862Z,97451.38
2022-11-05T10:47:40.716Z,97456.41
2022-11-05T10:49:56.468Z,97449.47
2022-11-05T10:52:01.448Z,97453.75
2022-11-05T10:54:12.612Z,97454.63
2022-11-05T10:56:34.014Z,97461.63
2022-11-05T10:58:38.965Z,97465.00
2022-11-05T11:00:44.301Z,97464.88
2022-11-05T11:02:50.622Z,97466.78
2022-11-05T11:04:54.637Z,97462.25
2022-11-05T11:06:59.695Z,97462.25
2022-11-05T11:09:04.782Z,97464.00
2022-11-05T11:11:11.371Z,97468.34
2022-11-05T11:13:21.530Z,97467.53
2022-11-05T11:15:27.558Z,97466.59
2022-11-05T11:17:33.252Z,97465.59
2022-11-05T11:19:37.382Z,97475.63
2022-11-05T11:21:41.627Z,97472.28
2022-11-05T11:23:54.050Z,97460.06
2022-11-05T11:26:01.613Z,97467.81
2022-11-05T11:28:06.722Z,97470.34
2022-11-05T11:30:19.014Z,97466.88
2022-11-05T11:32:22.938Z,97467.69
2022-11-05T11:34:30.898Z,97465.91
2022-11-05T11:36:36.659Z,97465.84
2022-11-05T11:38:40.341Z,97465.75
2022-11-05T11:40:43.408Z,97469.28
2022-11-05T11:42:48.400Z,97472.66
2022-11-05T11:44:52.438Z,97475.88
2022-11-05T11:46:58.519Z,97473.41
2022-11-05T11:49:01.347Z,97468.25
2022-11-05T11:51:29.969Z,97472.63
2022-11-05T11:53:35.687Z,97479.66
2022-11-05T11:55:38.268Z,97479.69
2022-11-05T11:57:45.388Z,97474.19
2022-11-05T12:00:07.871Z,97475.38
2022-11-05T12:02:42.997Z,97477.25
2022-11-05T12:05:11.292Z,97472.91
2022-11-05T12:07:33.463Z,97478.94
2022-11-05T12:09:55.944Z,97476.41
2022-11-05T12:12:05.951Z,97473.72
2022-11-05T12:14:23.793Z,97469.44
2022-11-05T12:16:37.651Z,97465.97
2022-11-05T12:18:48.848Z,97469.44
2022-11-05T12:21:06.072Z,97468.69
2022-11-05T12:23:20.428Z,97471.28
2022-11-05T12:25:28.900Z,97472.22
2022-11-05T12:27:45.933Z,97469.78
2022-11-05T12:29:58.489Z,97463.72
2022-11-05T12:32:20.675Z,97472.34
2022-11-05T12:34:40.064Z,97466.94
2022-11-05T12:36:56.921Z,97477.66
2022-11-05T12:39:29.064Z,97471.41
2022-11-05T12:41:33.773Z,97476.22
2022-11-05T12:43:45.448Z,97478.66
2022-11-05T12:45:57.432Z,97478.66
2022-11-05T12:48:12.859Z,97475.16
2022-11-05T12:50:23.312Z,97485.91
2022-11-05T12:52:50.675Z,97481.38
2022-11-05T12:55:04.040Z,97481.59
2022-11-05T12:57:09.768Z,97482.44
2022-11-05T12:59:20.330Z,97484.25
2022-11-05T13:01:32.043Z,97482.44
2022-11-05T13:03:43.299Z,97487.56
2022-11-05T13:05:49.501Z,97487.28
2022-11-05T13:07:59.254Z,97488.31
2022-11-05T13:10:09.047Z,97488.03
2022-11-05T13:12:14.363Z,97484.78
2022-11-05T13:14:21.522Z,97481.31
2022-11-05T13:16:30.369Z,97485.91
2022-11-05T13:18:46.787Z,97487.41
2022-11-05T13:20:53.087Z,97486.34
2022-11-05T13:22:59.929Z,97482.88
2022-11-05T13:25:11.515Z,97487.41
2022-11-05T13:27:37.888Z,97485.66
2022-11-05T13:29:46.397Z,97484.16
2022-11-05T13:31:53.112Z,97491.00
2022-11-05T13:33:57.181Z,97492.59
2022-11-05T13:36:23.066Z,97491.69
2022-11-05T13:38:44.891Z,97490.00
2022-11-05T13:41:02.147Z,97489.94
2022-11-05T13:43:28.305Z,97492.44
2022-11-05T13:46:05.606Z,97491.56
2022-11-05T13:48:28.670Z,97490.69
2022-11-05T13:50:50.255Z,97495.00
2022-11-05T13:53:09.975Z,97488.09
2022-11-05T13:55:38.568Z,97494.28
2022-11-05T13:57:56.941Z,97492.66
2022-11-05T14:00:08.135Z,97486.66
2022-11-05T14:02:16.752Z,97491.91
2022-11-05T14:04:32.267Z,97498.00
2022-11-05T14:06:37.434Z,97496.31
2022-11-05T14:08:42.448Z,97491.16
2022-11-05T14:10:46.883Z,97500.72
2022-11-05T14:12:53.800Z,97493.81
2022-11-05T14:15:02.238Z,97502.38
2022-11-05T14:17:16.955Z,97503.28
2022-11-05T14:19:34.455Z,97501.59
2022-11-05T14:21:49.135Z,97502.44
2022-11-05T14:23:54.059Z,97505.13
2022-11-05T14:25:59.665Z,97505.88
2022-11-05T14:28:04.017Z,97508.66
2022-11-05T14:30:41.139Z,97508.59
2022-11-05T14:32:48.610Z,97509.63
2022-11-05T14:34:56.580Z,97505.28
2022-11-05T14:37:25.490Z,97514.00
2022-11-05T14:39:29.938Z,97510.44
2022-11-05T14:41:32.630Z,97505.28
2022-11-05T14:43:36.852Z,97513.16
2022-11-05T14:45:41.497Z,97517.44
2022-11-05T14:47:51.335Z,97520.91
2022-11-05T14:49:59.167Z,97518.38
2022-11-05T14:52:08.723Z,97516.56
2022-11-05T14:54:21.327Z,97523.56
2022-11-05T14:56:23.977Z,97521.03
2022-11-05T14:58:30.352Z,97525.31
2022-11-05T15:00:49.531Z,97526.19
2022-11-05T15:02:58.114Z,97527.13
2022-11-05T15:05:39.541Z,97531.50
2022-11-05T15:07:42.194Z,97524.50
2022-11-05T15:09:48.368Z,97524.44
2022-11-05T15:12:04.073Z,97530.59
2022-11-05T15:14:09.323Z,97530.63
2022-11-05T15:16:20.528Z,97521.16
2022-11-05T15:18:30.437Z,97520.38
2022-11-05T15:20:40.138Z,97531.56
2022-11-05T15:22:45.585Z,97532.47
2022-11-05T15:24:48.647Z,97536.78
2022-11-05T15:26:58.253Z,97536.00
2022-11-05T15:29:02.409Z,97533.41
2022-11-05T15:31:07.261Z,97538.63
2022-11-05T15:33:20.087Z,97533.56
2022-11-05T15:35:28.001Z,97537.78
2022-11-05T15:37:30.615Z,97542.19
2022-11-05T15:39:40.425Z,97529.06
2022-11-05T15:41:44.098Z,97533.47
2022-11-05T15:43:48.186Z,97537.84
2022-11-05T15:46:02.082Z,97531.72
2022-11-05T15:48:15.499Z,97527.66
2022-11-05T15:50:18.145Z,97538.88
2022-11-05T15:52:22.431Z,97532.97
2022-11-05T15:54:30.399Z,97532.25
2022-11-05T15:56:36.727Z,97537.47
2022-11-05T15:58:46.408Z,97538.28
2022-11-05T16:00:50.274Z,97542.72
2022-11-05T16:02:55.802Z,97540.06
2022-11-05T16:05:01.211Z,97537.41
2022-11-05T16:07:10.035Z,97540.88
2022-11-05T16:09:22.967Z,97536.56
2022-11-05T16:11:27.173Z,97542.69
2022-11-05T16:13:33.740Z,97540.88
2022-11-05T16:15:36.319Z,97546.09
2022-11-05T16:17:48.319Z,97542.72
2022-11-05T16:19:51.566Z,97540.13
2022-11-05T16:21:55.749Z,97551.56
2022-11-05T16:24:00.581Z,97560.22
2022-11-05T16:26:03.172Z,97561.28
2022-11-05T16:28:08.130Z,97566.53
2022-11-05T16:30:18.904Z,97566.53
2022-11-05T16:32:30.295Z,97567.41
2022-11-05T16:34:37.793Z,97567.47
2022-11-05T16:36:40.420Z,97560.50
2022-11-05T16:38:44.958Z,97552.66
2022-11-05T16:40:47.545Z,97556.13
2022-11-05T16:42:52.153Z,97570.00
2022-11-05T16:44:56.176Z,97574.41
2022-11-05T16:46:58.745Z,97574.44
2022-11-05T16:49:01.298Z,97573.63
2022-11-05T16:51:03.907Z,97577.25
2022-11-05T16:53:06.522Z,97573.03
2022-11-05T16:55:12.101Z,97581.75
2022-11-05T16:57:23.930Z,97585.22
2022-11-05T16:59:26.413Z,97580.09
2022-11-05T17:01:29.158Z,97581.03
2022-11-05T17:03:32.238Z,97575.88
2022-11-05T17:05:34.871Z,97580.25
2022-11-05T17:07:41.333Z,97585.66
2022-11-05T17:09:44.315Z,97584.94
2022-11-05T17:11:48.269Z,97584.06
2022-11-05T17:13:51.034Z,97585.13
2022-11-05T17:15:53.700Z,97580.06
2022-11-05T17:17:56.534Z,97588.03
2022-11-05T17:19:59.057Z,97588.06
2022-11-05T17:22:01.679Z,97587.34
2022-11-05T17:24:04.474Z,97582.22
2022-11-05T17:26:09.140Z,97584.91
2022-11-05T17:28:13.803Z,97578.97
2022-11-05T17:30:17.174Z,97588.66
2022-11-05T17:32:19.804Z,97590.44
2022-11-05T17:34:22.421Z,97593.94
2022-11-05T17:36:25.151Z,97587.94
2022-11-05T17:38:28.210Z,97591.53
2022-11-05T17:40:30.886Z,97599.41
2022-11-05T17:42:33.692Z,97588.00
2022-11-05T17:44:37.734Z,97596.16
2022-11-05T17:46:40.315Z,97589.41
2022-11-05T17:48:44.727Z,97592.09
2022-11-05T17:50:49.392Z,97603.44
2022-11-05T17:52:51.925Z,97605.22
2022-11-05T17:54:54.669Z,97608.72
2022-11-05T17:56:57.219Z,97613.19
2022-11-05T17:59:01.099Z,97623.59
2022-11-05T18:01:05.847Z,97615.88
2022-11-05T18:03:08.537Z,97617.69
2022-11-05T18:05:12.884Z,97618.56
2022-11-05T18:07:15.481Z,97623.88
2022-11-05T18:09:18.116Z,97621.31
2022-11-05T18:11:20.816Z,97636.88
2022-11-05T18:13:23.469Z,97636.94
2022-11-05T18:15:28.432Z,97639.53
2022-11-05T18:17:34.757Z,97641.22
2022-11-05T18:20:14.204Z,97644.63
2022-11-05T18:22:20.230Z,97648.06
2022-11-05T18:24:23.254Z,97648.16
2022-11-05T18:26:25.878Z,97653.38
2022-11-05T18:28:31.020Z,97656.00
2022-11-05T18:30:34.223Z,97653.41
2022-11-05T18:32:38.206Z,97643.91
2022-11-05T18:34:40.957Z,97656.13
2022-11-05T18:36:44.745Z,97649.25
2022-11-05T18:38:47.596Z,97645.75
2022-11-05T18:40:50.225Z,97643.19
2022-11-05T18:42:52.850Z,97638.84
2022-11-05T18:44:55.549Z,97638.88
2022-11-05T18:46:58.948Z,97639.75
2022-11-05T18:49:03.265Z,97637.22
2022-11-05T18:51:08.464Z,97637.19
2022-11-05T18:53:14.003Z,97632.97
2022-11-05T18:55:16.610Z,97638.13
2022-11-05T18:57:19.835Z,97640.81
2022-11-05T18:59:36.909Z,97638.31
2022-11-05T19:01:41.515Z,97645.22
2022-11-05T19:03:44.904Z,97646.97
2022-11-05T19:05:48.954Z,97647.88
2022-11-05T19:07:51.922Z,97659.13
2022-11-05T19:09:54.569Z,97650.41
2022-11-05T19:11:57.157Z,97648.69
2022-11-05T19:14:00.096Z,97646.16
2022-11-05T19:16:02.701Z,97646.13
2022-11-05T19:18:05.329Z,97644.47
2022-11-05T19:20:09.370Z,97641.06
2022-11-05T19:22:13.278Z,97635.88
2022-11-05T19:24:17.289Z,97634.19
2022-11-05T19:26:28.405Z,97638.53
2022-11-05T19:28:31.713Z,97634.28
2022-11-05T19:30:34.288Z,97630.91
2022-11-05T19:32:36.863Z,97638.75
2022-11-05T19:34:39.414Z,97631.97
2022-11-05T19:36:42.649Z,97632.00
2022-11-05T19:38:46.902Z,97626.91
2022-11-05T19:40:49.742Z,97633.84
2022-11-05T19:42:52.567Z,97632.22
2022-11-05T19:44:55.232Z,97625.31
2022-11-05T19:46:57.994Z,97620.13
2022-11-05T19:49:01.833Z,97619.25
2022-11-05T19:51:06.323Z,97623.66
2022-11-05T19:53:09.055Z,97623.75
2022-11-05T19:55:13.140Z,97630.63
2022-11-05T19:57:15.729Z,97628.06
2022-11-05T19:59:18.638Z,97643.69
2022-11-05T20:01:22.939Z,97651.47
2022-11-05T20:03:25.708Z,97643.69
2022-11-05T20:05:28.442Z,97644.59
2022-11-05T20:07:31.516Z,97646.34
2022-11-05T20:09:34.925Z,97649.78
2022-11-05T20:11:39.893Z,97646.38
2022-11-05T20:13:42.548Z,97648.03
2022-11-05T20:15:46.215Z,97658.44
2022-11-05T20:17:50.741Z,97664.44
2022-11-05T20:19:53.478Z,97665.31
2022-11-05T20:21:56.214Z,97673.09
2022-11-05T20:23:59.362Z,97659.28
2022-11-05T20:26:02.107Z,97653.22
2022-11-05T20:28:06.553Z,97654.16
2022-11-05T20:30:10.886Z,97658.47
2022-11-05T20:32:14.307Z,97650.75
2022-11-05T20:34:16.963Z,97658.53
2022-11-05T20:36:22.067Z,97656.03
2022-11-05T20:38:24.705Z,97662.13
2022-11-05T20:40:27.581Z,97669.03
2022-11-05T20:42:30.385Z,97670.81
2022-11-05T20:44:34.467Z,97676.00
2022-11-05T20:46:37.086Z,97668.28
2022-11-05T20:48:39.717Z,97666.63
2022-11-05T20:50:42.771Z,97677.00
2022-11-05T20:52:45.936Z,97680.47
2022-11-05T20:54:49.048Z,97675.31
2022-11-05T20:56:51.929Z,97669.31
2022-11-05T20:58:55.519Z,97677.97
2022-11-05T21:00:59.577Z,97676.25
2022-11-05T21:03:02.287Z,97669.41
2022-11-05T21:05:07.429Z,97671.91
2022-11-05T21:07:10.346Z,97665.84
2022-11-05T21:09:13.165Z,97675.38
2022-11-05T21:11:15.924Z,97675.34
2022-11-05T21:13:19.015Z,97680.53
2022-11-05T21:15:23.190Z,97682.28
2022-11-05T21:17:27.130Z,97687.47
2022-11-05T21:19:32.147Z,97680.59
2022-11-05T21:21:40.020Z,97671.81
2022-11-05T21:23:43.659Z,97674.50
2022-11-05T21:25:46.512Z,97686.63
2022-11-05T21:27:49.103Z,97677.00
2022-11-05T21:29:53.017Z,97676.16
2022-11-05T21:31:55.776Z,97671.84
2022-11-05T21:33:59.724Z,97671.84
2022-11-05T21:36:07.517Z,97676.22
2022-11-05T21:38:10.810Z,97672.78
2022-11-05T21:40:13.540Z,97669.31
2022-11-05T21:42:16.130Z,97680.59
2022-11-05T21:44:18.843Z,97679.72
2022-11-05T21:46:21.866Z,97670.25
2022-11-05T21:48:24.523Z,97670.31
2022-11-05T21:50:42.485Z,97678.13
2022-11-05T21:53:17.136Z,97668.69
2022-11-05T21:55:37.598Z,97664.47
2022-11-05T21:57:58.590Z,97664.63
2022-11-05T22:00:02.049Z,97658.69
2022-11-05T22:02:05.591Z,97660.41
2022-11-05T22:04:08.340Z,97668.22
2022-11-05T22:06:12.321Z,97663.09
2022-11-05T22:08:15.291Z,97657.94
2022-11-05T22:10:18.067Z,97662.28
2022-11-05T22:12:21.020Z,97657.97
2022-11-05T22:14:24.630Z,97660.56
2022-11-05T22:16:27.394Z,97670.06
2022-11-05T22:18:30.446Z,97670.97
2022-11-05T22:20:33.021Z,97666.66
2022-11-05T22:22:37.122Z,97667.50
2022-11-05T22:24:40.772Z,97657.22
2022-11-05T22:26:44.907Z,97652.09
2022-11-05T22:28:47.581Z,97650.41
2022-11-05T22:30:50.221Z,97645.25
2022-11-05T22:32:52.797Z,97653.91
2022-11-05T22:34:55.394Z,97659.06
2022-11-05T22:36:57.993Z,97653.97
2022-11-05T22:39:02.392Z,97646.25
2022-11-05T22:41:08.529Z,97638.53
2022-11-05T22:43:11.164Z,97639.44
2022-11-05T22:45:13.756Z,97630.88
2022-11-05T22:47:18.020Z,97633.56
2022-11-05T22:49:20.792Z,97632.72
2022-11-05T22:51:25.112Z,97639.66
2022-11-05T22:53:27.678Z,97635.31
2022-11-05T22:55:31.618Z,97631.84
2022-11-05T22:57:34.241Z,97635.28
2022-11-05T22:59:36.833Z,97632.72
2022-11-05T23:01:39.618Z,97637.00
2022-11-05T23:03:44.381Z,97635.31
2022-11-05T23:05:46.990Z,97635.25
2022-11-05T23:08:07.271Z,97643.00
2022-11-05T23:10:27.892Z,97638.72
2022-11-05T23:12:34.185Z,97634.47
2022-11-05T23:14:37.376Z,97630.16
2022-11-05T23:16:58.757Z,97619.78
2022-11-05T23:19:18.838Z,97629.38
2022-11-05T23:21:38.920Z,97622.50
2022-11-05T23:23:59.349Z,97626.72
2022-11-05T23:26:22.648Z,97634.59
2022-11-05T23:28:26.686Z,97625.13
2022-11-05T23:30:29.887Z,97632.88
2022-11-05T23:32:32.833Z,97625.13
2022-11-05T23:34:35.751Z,97625.13
2022-11-05T23:36:56.059Z,97620.78
2022-11-05T23:38:58.657Z,97625.13
2022-11-05T23:41:19.974Z,97619.06
2022-11-05T23:43:40.272Z,97616.47
2022-11-05T23:46:02.566Z,97613.06
2022-11-05T23:48:17.845Z,97614.81
2022-11-05T23:50:20.474Z,97603.59
2022-11-05T23:52:23.139Z,97607.91
2022-11-05T23:54:25.781Z,97607.94
2022-11-05T23:56:28.389Z,97608.78
2022-11-05T23:58:31.102Z,97610.53
